Schofield, Hawaii
Current Conditions -  °F | °C
As of 5:58 PM on Saturday 24 Jan 2015 (Local Time) from PHHI Reporting Station
Broken Clouds Broken Clouds  
Wind Chill: 65°   Ceiling: 900
Heat Index: 65°   Visibility: 10mi
Dew Point: 63°   Wind: 9mph
Humidity: 91%   Direction: 330°NNW
Pressure: 30.06"   Gusts: NA
Location:  21.4794°N, 158.1°W
Report Text: PHHI 250358Z AUTO 33008KT 10SM BKN009 19/17 A3006 RMK AO2 SLP173 T01860171 $
Loading
Personal Weather Stations






























Interactive Weather Map New forecast layout! Learn more

10-Day Weather Forecast

Advertisements
Track Severe Weather on mobile